| time (UTC) | temp C | wind direction | speed KPH | gust KPH | rain 1hr cm | rain 24hr cm | rain mn cm | humidity % | barometer mb |
| 20260903165822 | 25 | 277 | 9.7 | 14.5 | 0.00 | 0.00 | 0.00 | 27 | 1023.0 |
| 20260903165322 | 25 | 238 | 12.9 | 17.7 | 0.00 | 0.00 | 0.00 | 27 | 1023.0 |
| 20260903164823 | 25 | 267 | 8.0 | 12.9 | 0.00 | 0.00 | 0.00 | 27 | 1023.0 |
| 20260903164323 | 25 | 272 | 9.7 | 16.1 | 0.00 | 0.00 | 0.00 | 29 | 1023.0 |
| 20260903163823 | 25 | 285 | 8.0 | 11.3 | 0.00 | 0.00 | 0.00 | 30 | 1023.0 |
| 20260903163325 | 25 | 299 | 11.3 | 14.5 | 0.00 | 0.00 | 0.00 | 28 | 1023.0 |
| 20260903162822 | 25 | 248 | 9.7 | 12.9 | 0.00 | 0.00 | 0.00 | 29 | 1023.0 |
| 20260903162324 | 24 | 251 | 9.7 | 14.5 | 0.00 | 0.00 | 0.00 | 30 | 1023.0 |
| 20260903161822 | 24 | 283 | 14.5 | 20.9 | 0.00 | 0.00 | 0.00 | 29 | 1022.0 |
| 20260903161323 | 24 | 275 | 8.0 | 11.3 | 0.00 | 0.00 | 0.00 | 30 | 1023.0 |
| 20260903160823 | 24 | 246 | 9.7 | 14.5 | 0.00 | 0.00 | 0.00 | 31 | 1023.0 |
| 20260903160324 | 24 | 271 | 8.0 | 11.3 | 0.00 | 0.00 | 0.00 | 30 | 1023.0 |
| 20260903155823 | 24 | 255 | 12.9 | 19.3 | 0.00 | 0.00 | 0.00 | 31 | 1023.0 |
| 20260903155322 | 24 | 272 | 6.4 | 9.7 | 0.00 | 0.00 | 0.00 | 30 | 1023.0 |
| 20260903154822 | 23 | 282 | 9.7 | 12.9 | 0.00 | 0.00 | 0.00 | 31 | 1023.0 |
| 20260903154322 | 23 | 282 | 12.9 | 20.9 | 0.00 | 0.00 | 0.00 | 32 | 1023.0 |
| 20260903153822 | 23 | 240 | 11.3 | 14.5 | 0.00 | 0.00 | 0.00 | 31 | 1023.0 |
| 20260903153323 | 23 | 234 | 6.4 | 9.7 | 0.00 | 0.00 | 0.00 | 31 | 1023.0 |
| 20260903152822 | 23 | 222 | 6.4 | 14.5 | 0.00 | 0.00 | 0.00 | 32 | 1023.0 |
| 20260903152322 | 23 | 264 | 3.2 | 4.8 | 0.00 | 0.00 | 0.00 | 33 | 1023.0 |
| 20260903151822 | 23 | 309 | 3.2 | 6.4 | 0.00 | 0.00 | 0.00 | 32 | 1023.0 |
| 20260903151323 | 23 | 170 | 3.2 | 6.4 | 0.00 | 0.00 | 0.00 | 32 | 1023.0 |
| 20260903150824 | 23 | 302 | 1.6 | 4.8 | 0.00 | 0.00 | 0.00 | 33 | 1023.0 |
| 20260903150322 | 23 | 16 | 3.2 | 8.0 | 0.00 | 0.00 | 0.00 | 32 | 1023.0 |
| 20260903145822 | 23 | 274 | 0.0 | 3.2 | 0.00 | 0.00 | 0.00 | 34 | 1023.0 |
| 20260903145324 | 22 | 161 | 8.0 | 12.9 | 0.00 | 0.00 | 0.00 | 34 | 1023.0 |
| 20260903144823 | 23 | 208 | 3.2 | 6.4 | 0.00 | 0.00 | 0.00 | 34 | 1023.0 |
| 20260903144322 | 23 | 23 | 3.2 | 4.8 | 0.00 | 0.00 | 0.00 | 34 | 1023.0 |
| 20260903143825 | 23 | 62 | 1.6 | 3.2 | 0.00 | 0.00 | 0.00 | 34 | 1023.0 |
| 20260903143323 | 22 | 307 | 1.6 | 3.2 | 0.00 | 0.00 | 0.00 | 34 | 1023.0 |
| 20260903142823 | 22 | 66 | 1.6 | 3.2 | 0.00 | 0.00 | 0.00 | 35 | 1023.0 |
| 20260903142324 | 21 | 337 | 1.6 | 4.8 | 0.00 | 0.00 | 0.00 | 37 | 1023.0 |
| 20260903141823 | 21 | 41 | 0.0 | 3.2 | 0.00 | 0.00 | 0.00 | 38 | 1023.0 |
| 20260903141323 | 21 | 293 | 1.6 | 4.8 | 0.00 | 0.00 | 0.00 | 38 | 1023.0 |
| 20260903140824 | 20 | 57 | 1.6 | 3.2 | 0.00 | 0.00 | 0.00 | 39 | 1023.0 |
| 20260903140323 | 19 | 348 | 3.2 | 6.4 | 0.00 | 0.00 | 0.00 | 39 | 1023.0 |
| 20260903135823 | 18 | 353 | 3.2 | 6.4 | 0.00 | 0.00 | 0.00 | 39 | 1023.0 |
| 20260903135322 | 18 | 343 | 6.4 | 9.7 | 0.00 | 0.00 | 0.00 | 41 | 1023.0 |
| 20260903134822 | 17 | 116 | 3.2 | 4.8 | 0.00 | 0.00 | 0.00 | 43 | 1023.0 |
| 20260903134324 | 17 | 17 | 6.4 | 9.7 | 0.00 | 0.00 | 0.00 | 45 | 1023.0 |
| 20260903133823 | 17 | 331 | 1.6 | 4.8 | 0.00 | 0.00 | 0.00 | 46 | 1023.0 |
| 20260903133322 | 17 | 297 | 3.2 | 4.8 | 0.00 | 0.00 | 0.00 | 45 | 1023.0 |
| 20260903132826 | 16 | 345 | 0.0 | 3.2 | 0.00 | 0.00 | 0.00 | 46 | 1023.0 |
| 20260903132322 | 16 | 39 | 1.6 | 3.2 | 0.00 | 0.00 | 0.00 | 47 | 1023.0 |
| 20260903131823 | 16 | 38 | 3.2 | 4.8 | 0.00 | 0.00 | 0.00 | 47 | 1022.0 |
| 20260903131322 | 16 | 146 | 1.6 | 3.2 | 0.00 | 0.00 | 0.00 | 47 | 1022.0 |
| 20260903130823 | 16 | 104 | 1.6 | 3.2 | 0.00 | 0.00 | 0.00 | 46 | 1022.0 |
| 20260903130325 | 16 | 95 | 1.6 | 3.2 | 0.00 | 0.00 | 0.00 | 46 | 1022.0 |
| 20260903125823 | 15 | 55 | 6.4 | 11.3 | 0.00 | 0.00 | 0.00 | 46 | 1022.0 |
| 20260903125322 | 15 | 188 | 3.2 | 9.7 | 0.00 | 0.00 | 0.00 | 46 | 1022.0 |
| 20260903124822 | 15 | 351 | 4.8 | 8.0 | 0.00 | 0.00 | 0.00 | 47 | 1022.0 |
| 20260903124324 | 14 | 157 | 3.2 | 4.8 | 0.00 | 0.00 | 0.00 | 51 | 1022.0 |
| 20260903123822 | 15 | 302 | 8.0 | 9.7 | 0.00 | 0.00 | 0.00 | 52 | 1022.0 |
| 20260903123322 | 15 | 124 | 3.2 | 4.8 | 0.00 | 0.00 | 0.00 | 52 | 1022.0 |
| 20260903122822 | 15 | 197 | 9.7 | 11.3 | 0.00 | 0.00 | 0.00 | 46 | 1022.0 |
| 20260903122323 | 15 | 28 | 0.0 | 1.6 | 0.00 | 0.00 | 0.00 | 45 | 1022.0 |
| 20260903121822 | 15 | 251 | 0.0 | 1.6 | 0.00 | 0.00 | 0.00 | 47 | 1022.0 |
| 20260903121322 | 15 | 284 | 3.2 | 6.4 | 0.00 | 0.00 | 0.00 | 51 | 1022.0 |
| 20260903120823 | 15 | 358 | 1.6 | 3.2 | 0.00 | 0.00 | 0.00 | 48 | 1022.0 |
| 20260903120323 | 15 | 360 | 0.0 | 0.0 | 0.00 | 0.00 | 0.00 | 51 | 1022.0 |
| 20260903115822 | 15 | 243 | 4.8 | 8.0 | 0.00 | 0.00 | 0.00 | 53 | 1022.0 |
| 20260903115322 | 15 | 356 | 1.6 | 3.2 | 0.00 | 0.00 | 0.00 | 44 | 1022.0 |
| 20260903114824 | 15 | 226 | 6.4 | 9.7 | 0.00 | 0.00 | 0.00 | 49 | 1022.0 |
| 20260903114322 | 16 | 353 | 4.8 | 8.0 | 0.00 | 0.00 | 0.00 | 44 | 1021.0 |
| 20260903113822 | 16 | 337 | 1.6 | 3.2 | 0.00 | 0.00 | 0.00 | 44 | 1021.0 |
| 20260903113322 | 16 | 297 | 4.8 | 6.4 | 0.00 | 0.00 | 0.00 | 48 | 1022.0 |
| 20260903112823 | 16 | 306 | 4.8 | 6.4 | 0.00 | 0.00 | 0.00 | 50 | 1022.0 |
| 20260903112322 | 17 | 291 | 9.7 | 12.9 | 0.00 | 0.00 | 0.00 | 46 | 1022.0 |
| 20260903111822 | 18 | 297 | 1.6 | 3.2 | 0.00 | 0.00 | 0.00 | 41 | 1021.0 |
| 20260903111322 | 18 | 242 | 6.4 | 8.0 | 0.00 | 0.00 | 0.00 | 40 | 1021.0 |
| 20260903110823 | 18 | 277 | 4.8 | 8.0 | 0.00 | 0.00 | 0.00 | 37 | 1021.0 |
| 20260903110322 | 18 | 348 | 3.2 | 6.4 | 0.00 | 0.00 | 0.00 | 36 | 1021.0 |
| 20260903105822 | 18 | 41 | 0.0 | 1.6 | 0.00 | 0.00 | 0.00 | 37 | 1021.0 |
| 20260903105322 | 18 | 144 | 3.2 | 4.8 | 0.00 | 0.00 | 0.00 | 39 | 1021.0 |
| 20260903104822 | 18 | 79 | 3.2 | 6.4 | 0.00 | 0.00 | 0.00 | 38 | 1021.0 |
| 20260903104322 | 18 | 358 | 1.6 | 3.2 | 0.00 | 0.00 | 0.00 | 38 | 1021.0 |
| 20260903103822 | 18 | 23 | 1.6 | 3.2 | 0.00 | 0.00 | 0.00 | 37 | 1021.0 |
| 20260903103322 | 18 | 212 | 3.2 | 3.2 | 0.00 | 0.00 | 0.00 | 38 | 1021.0 |
| 20260903102822 | 18 | 40 | 3.2 | 6.4 | 0.00 | 0.00 | 0.00 | 38 | 1021.0 |
| 20260903102323 | 19 | 86 | 1.6 | 3.2 | 0.00 | 0.00 | 0.00 | 36 | 1021.0 |
| 20260903101822 | 19 | 210 | 3.2 | 4.8 | 0.00 | 0.00 | 0.00 | 37 | 1021.0 |
| 20260903101323 | 19 | 325 | 4.8 | 8.0 | 0.00 | 0.00 | 0.00 | 36 | 1021.0 |
| 20260903100823 | 19 | 8 | 4.8 | 6.4 | 0.00 | 0.00 | 0.00 | 37 | 1021.0 |
| 20260903100323 | 19 | 346 | 3.2 | 4.8 | 0.00 | 0.00 | 0.00 | 36 | 1021.0 |
| 20260903095822 | 19 | 302 | 3.2 | 4.8 | 0.00 | 0.00 | 0.00 | 37 | 1021.0 |
| 20260903095323 | 19 | 209 | 8.0 | 14.5 | 0.00 | 0.00 | 0.00 | 36 | 1021.0 |
| 20260903094823 | 19 | 138 | 3.2 | 8.0 | 0.00 | 0.00 | 0.00 | 37 | 1021.0 |
| 20260903094322 | 18 | 66 | 6.4 | 9.7 | 0.00 | 0.00 | 0.00 | 36 | 1021.0 |
| 20260903093822 | 18 | 176 | 6.4 | 9.7 | 0.00 | 0.00 | 0.00 | 39 | 1021.0 |
| 20260903093322 | 18 | 64 | 3.2 | 4.8 | 0.00 | 0.00 | 0.00 | 37 | 1021.0 |
| 20260903092822 | 18 | 242 | 6.4 | 9.7 | 0.00 | 0.00 | 0.00 | 37 | 1021.0 |
| 20260903092325 | 18 | 223 | 4.8 | 9.7 | 0.00 | 0.00 | 0.00 | 38 | 1021.0 |
| 20260903091823 | 18 | 164 | 4.8 | 8.0 | 0.00 | 0.00 | 0.00 | 39 | 1021.0 |
| 20260903091324 | 18 | 260 | 3.2 | 6.4 | 0.00 | 0.00 | 0.00 | 40 | 1021.0 |
| 20260903090822 | 18 | 94 | 3.2 | 6.4 | 0.00 | 0.00 | 0.00 | 41 | 1021.0 |
| 20260903090323 | 18 | 135 | 6.4 | 9.7 | 0.00 | 0.00 | 0.00 | 42 | 1021.0 |
| 20260903085822 | 18 | 137 | 4.8 | 8.0 | 0.00 | 0.00 | 0.00 | 41 | 1021.0 |
| 20260903085322 | 18 | 191 | 3.2 | 4.8 | 0.00 | 0.00 | 0.00 | 41 | 1021.0 |
| 20260903084823 | 19 | 310 | 4.8 | 6.4 | 0.00 | 0.00 | 0.00 | 39 | 1021.0 |
| 20260903084322 | 19 | 306 | 4.8 | 9.7 | 0.00 | 0.00 | 0.00 | 38 | 1021.0 |
| 20260903083822 | 19 | 314 | 8.0 | 12.9 | 0.00 | 0.00 | 0.00 | 39 | 1021.0 |
| 20260903083323 | 18 | 309 | 9.7 | 12.9 | 0.00 | 0.00 | 0.00 | 40 | 1021.0 |
| 20260903082822 | 18 | 321 | 6.4 | 14.5 | 0.00 | 0.00 | 0.00 | 39 | 1021.0 |
| 20260903082322 | 17 | 36 | 3.2 | 3.2 | 0.00 | 0.00 | 0.00 | 44 | 1022.0 |
| 20260903081822 | 17 | 40 | 3.2 | 3.2 | 0.00 | 0.00 | 0.00 | 47 | 1022.0 |
| 20260903081322 | 17 | 38 | 1.6 | 3.2 | 0.00 | 0.00 | 0.00 | 49 | 1022.0 |
| 20260903080822 | 17 | 32 | 1.6 | 4.8 | 0.00 | 0.00 | 0.00 | 52 | 1022.0 |
| 20260903080322 | 17 | 80 | 1.6 | 4.8 | 0.00 | 0.00 | 0.00 | 51 | 1022.0 |
| 20260903075825 | 17 | 19 | 3.2 | 4.8 | 0.00 | 0.00 | 0.00 | 51 | 1022.0 |
| 20260903075323 | 17 | 53 | 4.8 | 8.0 | 0.00 | 0.00 | 0.00 | 50 | 1022.0 |
| 20260903074822 | 17 | 349 | 6.4 | 9.7 | 0.00 | 0.00 | 0.00 | 50 | 1022.0 |
| 20260903074322 | 17 | 354 | 4.8 | 6.4 | 0.00 | 0.00 | 0.00 | 50 | 1022.0 |
| 20260903073822 | 17 | 23 | 3.2 | 4.8 | 0.00 | 0.00 | 0.00 | 51 | 1022.0 |
| 20260903073322 | 17 | 304 | 3.2 | 6.4 | 0.00 | 0.00 | 0.00 | 52 | 1022.0 |
| 20260903072822 | 17 | 36 | 0.0 | 1.6 | 0.00 | 0.00 | 0.00 | 52 | 1022.0 |
| 20260903072322 | 18 | 78 | 3.2 | 6.4 | 0.00 | 0.00 | 0.00 | 50 | 1022.0 |
| 20260903071822 | 18 | 354 | 1.6 | 3.2 | 0.00 | 0.00 | 0.00 | 49 | 1022.0 |
| 20260903071324 | 18 | 360 | 3.2 | 6.4 | 0.00 | 0.00 | 0.00 | 48 | 1022.0 |
| 20260903070823 | 17 | 1 | 4.8 | 9.7 | 0.00 | 0.00 | 0.00 | 53 | 1022.0 |
| 20260903070322 | 17 | 294 | 9.7 | 11.3 | 0.00 | 0.00 | 0.00 | 55 | 1022.0 |
| 20260903065823 | 17 | 280 | 1.6 | 4.8 | 0.00 | 0.00 | 0.00 | 55 | 1022.0 |
| 20260903065323 | 16 | 356 | 9.7 | 14.5 | 0.00 | 0.00 | 0.00 | 56 | 1022.0 |
| 20260903064822 | 17 | 150 | 3.2 | 9.7 | 0.00 | 0.00 | 0.00 | 56 | 1021.0 |
| 20260903064323 | 16 | 53 | 8.0 | 12.9 | 0.00 | 0.00 | 0.00 | 55 | 1022.0 |
| 20260903063823 | 16 | 10 | 4.8 | 9.7 | 0.00 | 0.00 | 0.00 | 55 | 1022.0 |
| 20260903063322 | 16 | 312 | 6.4 | 8.0 | 0.00 | 0.00 | 0.00 | 57 | 1022.0 |
| 20260903062822 | 16 | 7 | 4.8 | 9.7 | 0.00 | 0.00 | 0.00 | 57 | 1022.0 |
| 20260903062322 | 16 | 339 | 3.2 | 6.4 | 0.00 | 0.00 | 0.00 | 57 | 1022.0 |
| 20260903061827 | 16 | 343 | 3.2 | 6.4 | 0.00 | 0.00 | 0.00 | 56 | 1022.0 |
| 20260903061323 | 16 | 348 | 4.8 | 8.0 | 0.00 | 0.00 | 0.00 | 56 | 1022.0 |
| 20260903060822 | 16 | 13 | 3.2 | 6.4 | 0.00 | 0.00 | 0.00 | 55 | 1022.0 |
| 20260903060322 | 17 | 337 | 4.8 | 8.0 | 0.00 | 0.00 | 0.00 | 55 | 1022.0 |
| 20260903055823 | 17 | 341 | 6.4 | 9.7 | 0.00 | 0.00 | 0.00 | 54 | 1022.0 |
| 20260903055322 | 17 | 353 | 4.8 | 9.7 | 0.00 | 0.00 | 0.00 | 55 | 1022.0 |
| 20260903054822 | 17 | 344 | 3.2 | 3.2 | 0.00 | 0.00 | 0.00 | 55 | 1022.0 |
| 20260903054322 | 17 | 343 | 8.0 | 12.9 | 0.00 | 0.00 | 0.00 | 53 | 1022.0 |
| 20260903053822 | 17 | 344 | 3.2 | 6.4 | 0.00 | 0.00 | 0.00 | 52 | 1022.0 |
| 20260903053324 | 17 | 340 | 1.6 | 3.2 | 0.00 | 0.00 | 0.00 | 51 | 1022.0 |
| 20260903052822 | 17 | 322 | 1.6 | 3.2 | 0.00 | 0.00 | 0.00 | 51 | 1022.0 |
| 20260903052323 | 17 | 318 | 3.2 | 6.4 | 0.00 | 0.00 | 0.00 | 51 | 1022.0 |
| 20260903051822 | 18 | 300 | 3.2 | 3.2 | 0.00 | 0.00 | 0.00 | 52 | 1022.0 |
| 20260903051322 | 18 | 345 | 1.6 | 4.8 | 0.00 | 0.00 | 0.00 | 50 | 1022.0 |
| 20260903050823 | 18 | 341 | 3.2 | 4.8 | 0.00 | 0.00 | 0.00 | 50 | 1022.0 |
| 20260903050322 | 18 | 318 | 1.6 | 6.4 | 0.00 | 0.00 | 0.00 | 49 | 1022.0 |
| 20260903045823 | 19 | 19 | 6.4 | 11.3 | 0.00 | 0.00 | 0.00 | 47 | 1022.0 |
| 20260903045322 | 19 | 331 | 6.4 | 9.7 | 0.00 | 0.00 | 0.00 | 48 | 1022.0 |
| 20260903044822 | 19 | 332 | 3.2 | 4.8 | 0.00 | 0.00 | 0.00 | 48 | 1022.0 |
| 20260903044322 | 19 | 355 | 3.2 | 6.4 | 0.00 | 0.00 | 0.00 | 47 | 1022.0 |
| 20260903043822 | 20 | 324 | 3.2 | 4.8 | 0.00 | 0.00 | 0.00 | 46 | 1022.0 |
| 20260903043322 | 20 | 342 | 4.8 | 8.0 | 0.00 | 0.00 | 0.00 | 45 | 1022.0 |
| 20260903042823 | 20 | 8 | 3.2 | 6.4 | 0.00 | 0.00 | 0.00 | 45 | 1022.0 |
| 20260903042323 | 20 | 349 | 3.2 | 6.4 | 0.00 | 0.00 | 0.00 | 45 | 1022.0 |
| 20260903041822 | 20 | 316 | 0.0 | 3.2 | 0.00 | 0.00 | 0.00 | 44 | 1022.0 |
| 20260903041324 | 20 | 349 | 4.8 | 6.4 | 0.00 | 0.00 | 0.00 | 43 | 1022.0 |
| 20260903040822 | 20 | 355 | 3.2 | 6.4 | 0.00 | 0.00 | 0.00 | 43 | 1022.0 |
| 20260903040324 | 20 | 355 | 3.2 | 4.8 | 0.00 | 0.00 | 0.00 | 43 | 1022.0 |
| 20260903035822 | 21 | 358 | 3.2 | 4.8 | 0.00 | 0.00 | 0.00 | 42 | 1022.0 |
| 20260903035323 | 21 | 333 | 3.2 | 6.4 | 0.00 | 0.00 | 0.00 | 42 | 1022.0 |
| 20260903034822 | 21 | 344 | 6.4 | 9.7 | 0.00 | 0.00 | 0.00 | 41 | 1022.0 |
| 20260903034322 | 21 | 359 | 6.4 | 9.7 | 0.00 | 0.00 | 0.00 | 41 | 1022.0 |
| 20260903033822 | 21 | 5 | 4.8 | 9.7 | 0.00 | 0.00 | 0.00 | 40 | 1022.0 |
| 20260903033322 | 21 | 10 | 6.4 | 11.3 | 0.00 | 0.00 | 0.00 | 40 | 1022.0 |
| 20260903032824 | 21 | 359 | 8.0 | 17.7 | 0.00 | 0.00 | 0.00 | 39 | 1022.0 |
| 20260903032322 | 22 | 9 | 6.4 | 11.3 | 0.00 | 0.00 | 0.00 | 39 | 1022.0 |
| 20260903031823 | 22 | 354 | 8.0 | 14.5 | 0.00 | 0.00 | 0.00 | 39 | 1022.0 |
| 20260903031326 | 22 | 355 | 9.7 | 14.5 | 0.00 | 0.00 | 0.00 | 39 | 1022.0 |
| 20260903030823 | 22 | 3 | 9.7 | 17.7 | 0.00 | 0.00 | 0.00 | 38 | 1022.0 |
| 20260903030323 | 22 | 353 | 8.0 | 12.9 | 0.00 | 0.00 | 0.00 | 38 | 1022.0 |
| 20260903025822 | 22 | 26 | 8.0 | 14.5 | 0.00 | 0.00 | 0.00 | 37 | 1022.0 |
| 20260903025322 | 22 | 6 | 14.5 | 27.4 | 0.00 | 0.00 | 0.00 | 37 | 1021.0 |
| 20260903024822 | 22 | 5 | 12.9 | 19.3 | 0.00 | 0.00 | 0.00 | 37 | 1021.0 |
| 20260903024323 | 22 | 359 | 8.0 | 12.9 | 0.00 | 0.00 | 0.00 | 37 | 1021.0 |
| 20260903023822 | 22 | 357 | 8.0 | 12.9 | 0.00 | 0.00 | 0.00 | 36 | 1021.0 |
| 20260903023322 | 21 | 4 | 3.2 | 6.4 | 0.00 | 0.00 | 0.00 | 36 | 1021.0 |
| 20260903022822 | 22 | 358 | 4.8 | 9.7 | 0.00 | 0.00 | 0.00 | 39 | 1021.0 |
| 20260903022324 | 22 | 22 | 1.6 | 3.2 | 0.00 | 0.00 | 0.00 | 39 | 1021.0 |
| 20260903021823 | 23 | 296 | 4.8 | 6.4 | 0.00 | 0.00 | 0.00 | 39 | 1021.0 |
| 20260903021322 | 23 | 261 | 1.6 | 3.2 | 0.00 | 0.00 | 0.00 | 32 | 1021.0 |
| 20260903020823 | 23 | 226 | 1.6 | 4.8 | 0.00 | 0.00 | 0.00 | 31 | 1021.0 |
| 20260903020324 | 23 | 227 | 1.6 | 3.2 | 0.00 | 0.00 | 0.00 | 32 | 1020.0 |
| 20260903015822 | 23 | 202 | 3.2 | 3.2 | 0.00 | 0.00 | 0.00 | 31 | 1020.0 |
| 20260903015322 | 23 | 198 | 3.2 | 4.8 | 0.00 | 0.00 | 0.00 | 30 | 1020.0 |
| 20260903014822 | 24 | 190 | 3.2 | 4.8 | 0.00 | 0.00 | 0.00 | 30 | 1020.0 |
| 20260903014322 | 24 | 169 | 3.2 | 4.8 | 0.00 | 0.00 | 0.00 | 30 | 1020.0 |
| 20260903013823 | 24 | 215 | 3.2 | 3.2 | 0.00 | 0.00 | 0.00 | 30 | 1020.0 |
| 20260903013322 | 24 | 200 | 4.8 | 8.0 | 0.00 | 0.00 | 0.00 | 29 | 1020.0 |
| 20260903012824 | 25 | 169 | 6.4 | 8.0 | 0.00 | 0.00 | 0.00 | 29 | 1020.0 |
| 20260903012323 | 25 | 196 | 4.8 | 6.4 | 0.00 | 0.00 | 0.00 | 29 | 1020.0 |
| 20260903011822 | 25 | 198 | 6.4 | 8.0 | 0.00 | 0.00 | 0.00 | 29 | 1020.0 |
| 20260903011322 | 25 | 169 | 6.4 | 8.0 | 0.00 | 0.00 | 0.00 | 28 | 1020.0 |
| 20260903010822 | 25 | 191 | 4.8 | 6.4 | 0.00 | 0.00 | 0.00 | 28 | 1020.0 |
| 20260903010322 | 25 | 197 | 4.8 | 8.0 | 0.00 | 0.00 | 0.00 | 27 | 1020.0 |
| 20260903005823 | 25 | 167 | 4.8 | 8.0 | 0.00 | 0.00 | 0.00 | 27 | 1020.0 |
| 20260903005323 | 26 | 184 | 6.4 | 9.7 | 0.00 | 0.00 | 0.00 | 27 | 1020.0 |
| 20260903004823 | 26 | 197 | 4.8 | 6.4 | 0.00 | 0.00 | 0.00 | 27 | 1020.0 |
| 20260903004323 | 26 | 200 | 4.8 | 6.4 | 0.00 | 0.00 | 0.00 | 27 | 1020.0 |
| 20260903003823 | 26 | 178 | 6.4 | 8.0 | 0.00 | 0.00 | 0.00 | 27 | 1020.0 |
| 20260903003322 | 26 | 182 | 6.4 | 9.7 | 0.00 | 0.00 | 0.00 | 27 | 1020.0 |
| 20260903002823 | 26 | 165 | 8.0 | 12.9 | 0.00 | 0.00 | 0.00 | 26 | 1020.0 |
| 20260903002323 | 26 | 182 | 6.4 | 11.3 | 0.00 | 0.00 | 0.00 | 27 | 1020.0 |
| 20260903001822 | 27 | 167 | 6.4 | 11.3 | 0.00 | 0.00 | 0.00 | 27 | 1020.0 |
| 20260903001323 | 27 | 173 | 11.3 | 14.5 | 0.00 | 0.00 | 0.00 | 26 | 1020.0 |
| 20260903000823 | 27 | 160 | 11.3 | 14.5 | 0.00 | 0.00 | 0.00 | 26 | 1020.0 |
| 20260903000322 | 27 | 170 | 8.0 | 11.3 | 0.00 | 0.00 | 0.00 | 26 | 1020.0 |
| 20260902235822 | 27 | 151 | 9.7 | 11.3 | 0.00 | 0.00 | 0.00 | 26 | 1020.0 |
| 20260902235323 | 27 | 177 | 9.7 | 14.5 | 0.00 | 0.00 | 0.00 | 25 | 1020.0 |
| 20260902234822 | 27 | 186 | 9.7 | 12.9 | 0.00 | 0.00 | 0.00 | 26 | 1020.0 |
| 20260902234322 | 27 | 177 | 9.7 | 16.1 | 0.00 | 0.00 | 0.00 | 25 | 1020.0 |
| 20260902233826 | 27 | 169 | 11.3 | 14.5 | 0.00 | 0.00 | 0.00 | 25 | 1020.0 |
| 20260902233323 | 27 | 182 | 11.3 | 16.1 | 0.00 | 0.00 | 0.00 | 25 | 1020.0 |
| 20260902232822 | 27 | 161 | 8.0 | 12.9 | 0.00 | 0.00 | 0.00 | 26 | 1020.0 |
| 20260902232323 | 27 | 161 | 8.0 | 11.3 | 0.00 | 0.00 | 0.00 | 26 | 1020.0 |
| 20260902231822 | 27 | 162 | 8.0 | 9.7 | 0.00 | 0.00 | 0.00 | 27 | 1020.0 |
| 20260902231322 | 26 | 194 | 6.4 | 9.7 | 0.00 | 0.00 | 0.00 | 28 | 1020.0 |
| 20260902230823 | 26 | 174 | 4.8 | 9.7 | 0.00 | 0.00 | 0.00 | 28 | 1020.0 |
| 20260902230322 | 27 | 164 | 9.7 | 14.5 | 0.00 | 0.00 | 0.00 | 26 | 1020.0 |
| 20260902225822 | 27 | 162 | 6.4 | 9.7 | 0.00 | 0.00 | 0.00 | 27 | 1020.0 |
| 20260902225322 | 27 | 183 | 9.7 | 12.9 | 0.00 | 0.00 | 0.00 | 26 | 1020.0 |
| 20260902224822 | 27 | 172 | 11.3 | 14.5 | 0.00 | 0.00 | 0.00 | 26 | 1020.0 |
| 20260902224323 | 27 | 181 | 9.7 | 12.9 | 0.00 | 0.00 | 0.00 | 26 | 1020.0 |
| 20260902223822 | 27 | 184 | 8.0 | 11.3 | 0.00 | 0.00 | 0.00 | 25 | 1020.0 |
| 20260902223323 | 28 | 190 | 4.8 | 8.0 | 0.00 | 0.00 | 0.00 | 26 | 1020.0 |
| 20260902222822 | 28 | 170 | 6.4 | 11.3 | 0.00 | 0.00 | 0.00 | 26 | 1020.0 |
| 20260902222323 | 28 | 178 | 6.4 | 14.5 | 0.00 | 0.00 | 0.00 | 26 | 1020.0 |
| 20260902221822 | 28 | 184 | 6.4 | 9.7 | 0.00 | 0.00 | 0.00 | 26 | 1021.0 |
| 20260902221323 | 28 | 218 | 6.4 | 9.7 | 0.00 | 0.00 | 0.00 | 25 | 1021.0 |
| 20260902220822 | 28 | 249 | 6.4 | 11.3 | 0.00 | 0.00 | 0.00 | 23 | 1021.0 |
| 20260902220322 | 28 | 236 | 8.0 | 11.3 | 0.00 | 0.00 | 0.00 | 25 | 1021.0 |
| 20260902215822 | 28 | 235 | 8.0 | 14.5 | 0.00 | 0.00 | 0.00 | 25 | 1021.0 |
| 20260902215322 | 28 | 218 | 8.0 | 12.9 | 0.00 | 0.00 | 0.00 | 25 | 1021.0 |
| 20260902214822 | 28 | 211 | 9.7 | 14.5 | 0.00 | 0.00 | 0.00 | 25 | 1021.0 |
| 20260902214322 | 28 | 145 | 8.0 | 11.3 | 0.00 | 0.00 | 0.00 | 26 | 1021.0 |
| 20260902213822 | 28 | 160 | 9.7 | 14.5 | 0.00 | 0.00 | 0.00 | 26 | 1021.0 |
| 20260902213323 | 28 | 151 | 11.3 | 14.5 | 0.00 | 0.00 | 0.00 | 26 | 1021.0 |
| 20260902212823 | 28 | 159 | 12.9 | 14.5 | 0.00 | 0.00 | 0.00 | 26 | 1021.0 |
| 20260902212324 | 27 | 164 | 14.5 | 16.1 | 0.00 | 0.00 | 0.00 | 26 | 1021.0 |
| 20260902211824 | 27 | 168 | 12.9 | 19.3 | 0.00 | 0.00 | 0.00 | 27 | 1021.0 |
| 20260902211323 | 27 | 176 | 6.4 | 11.3 | 0.00 | 0.00 | 0.00 | 28 | 1021.0 |
| 20260902210822 | 27 | 141 | 8.0 | 12.9 | 0.00 | 0.00 | 0.00 | 28 | 1021.0 |
| 20260902210322 | 27 | 169 | 11.3 | 14.5 | 0.00 | 0.00 | 0.00 | 28 | 1021.0 |
| 20260902205822 | 27 | 162 | 9.7 | 12.9 | 0.00 | 0.00 | 0.00 | 28 | 1021.0 |
| 20260902205323 | 27 | 159 | 8.0 | 11.3 | 0.00 | 0.00 | 0.00 | 28 | 1021.0 |
| 20260902204824 | 27 | 144 | 9.7 | 12.9 | 0.00 | 0.00 | 0.00 | 28 | 1021.0 |
| 20260902204323 | 28 | 143 | 12.9 | 16.1 | 0.00 | 0.00 | 0.00 | 27 | 1022.0 |
| 20260902203822 | 28 | 150 | 11.3 | 14.5 | 0.00 | 0.00 | 0.00 | 27 | 1022.0 |
| 20260902203322 | 27 | 100 | 3.2 | 6.4 | 0.00 | 0.00 | 0.00 | 26 | 1022.0 |
| 20260902202823 | 27 | 141 | 9.7 | 14.5 | 0.00 | 0.00 | 0.00 | 27 | 1022.0 |
| 20260902202322 | 27 | 136 | 9.7 | 16.1 | 0.00 | 0.00 | 0.00 | 28 | 1022.0 |
| 20260902201822 | 27 | 203 | 3.2 | 6.4 | 0.00 | 0.00 | 0.00 | 28 | 1022.0 |
| 20260902201322 | 27 | 156 | 6.4 | 9.7 | 0.00 | 0.00 | 0.00 | 29 | 1022.0 |
| 20260902200823 | 27 | 245 | 3.2 | 4.8 | 0.00 | 0.00 | 0.00 | 28 | 1022.0 |
| 20260902200324 | 27 | 191 | 8.0 | 12.9 | 0.00 | 0.00 | 0.00 | 27 | 1022.0 |
| 20260902195823 | 27 | 221 | 4.8 | 8.0 | 0.00 | 0.00 | 0.00 | 28 | 1022.0 |
| 20260902195323 | 27 | 161 | 4.8 | 8.0 | 0.00 | 0.00 | 0.00 | 28 | 1022.0 |
| 20260902194822 | 27 | 203 | 6.4 | 8.0 | 0.00 | 0.00 | 0.00 | 28 | 1022.0 |
| 20260902194324 | 27 | 236 | 9.7 | 12.9 | 0.00 | 0.00 | 0.00 | 27 | 1022.0 |
| 20260902193824 | 27 | 247 | 6.4 | 14.5 | 0.00 | 0.00 | 0.00 | 27 | 1022.0 |
| 20260902193323 | 27 | 218 | 6.4 | 12.9 | 0.00 | 0.00 | 0.00 | 28 | 1022.0 |
| 20260902192823 | 26 | 169 | 6.4 | 9.7 | 0.00 | 0.00 | 0.00 | 27 | 1022.0 |
| 20260902192323 | 26 | 300 | 4.8 | 6.4 | 0.00 | 0.00 | 0.00 | 27 | 1022.0 |
| 20260902191822 | 27 | 290 | 11.3 | 17.7 | 0.00 | 0.00 | 0.00 | 28 | 1022.0 |
| 20260902191322 | 27 | 239 | 9.7 | 16.1 | 0.00 | 0.00 | 0.00 | 26 | 1023.0 |
| 20260902190823 | 27 | 210 | 6.4 | 11.3 | 0.00 | 0.00 | 0.00 | 27 | 1023.0 |
| 20260902190323 | 27 | 294 | 12.9 | 19.3 | 0.00 | 0.00 | 0.00 | 26 | 1023.0 |
| 20260902185823 | 27 | 286 | 9.7 | 14.5 | 0.00 | 0.00 | 0.00 | 27 | 1023.0 |
| 20260902185322 | 27 | 289 | 9.7 | 16.1 | 0.00 | 0.00 | 0.00 | 28 | 1023.0 |
| 20260902184822 | 26 | 249 | 6.4 | 12.9 | 0.00 | 0.00 | 0.00 | 27 | 1023.0 |
| 20260902184322 | 26 | 242 | 8.0 | 14.5 | 0.00 | 0.00 | 0.00 | 28 | 1023.0 |
| 20260902183822 | 26 | 256 | 6.4 | 11.3 | 0.00 | 0.00 | 0.00 | 28 | 1023.0 |
| 20260902183323 | 26 | 307 | 3.2 | 4.8 | 0.00 | 0.00 | 0.00 | 29 | 1023.0 |
| 20260902182822 | 26 | 198 | 9.7 | 14.5 | 0.00 | 0.00 | 0.00 | 28 | 1023.0 |
| 20260902182322 | 26 | 262 | 8.0 | 14.5 | 0.00 | 0.00 | 0.00 | 28 | 1023.0 |
| 20260902181822 | 26 | 281 | 11.3 | 16.1 | 0.00 | 0.00 | 0.00 | 29 | 1023.0 |
| 20260902181323 | 26 | 273 | 11.3 | 17.7 | 0.00 | 0.00 | 0.00 | 28 | 1023.0 |
| 20260902180822 | 26 | 262 | 11.3 | 16.1 | 0.00 | 0.00 | 0.00 | 28 | 1023.0 |
| 20260902180323 | 26 | 253 | 12.9 | 20.9 | 0.00 | 0.00 | 0.00 | 29 | 1024.0 |
| 20260902175822 | 26 | 285 | 12.9 | 17.7 | 0.00 | 0.00 | 0.00 | 29 | 1024.0 |
| 20260902175323 | 26 | 256 | 11.3 | 20.9 | 0.00 | 0.00 | 0.00 | 29 | 1024.0 |
| 20260902174822 | 26 | 272 | 9.7 | 16.1 | 0.00 | 0.00 | 0.00 | 30 | 1024.0 |
| 20260902174324 | 26 | 300 | 9.7 | 17.7 | 0.00 | 0.00 | 0.00 | 30 | 1024.0 |
| 20260902173822 | 26 | 273 | 8.0 | 11.3 | 0.00 | 0.00 | 0.00 | 30 | 1024.0 |
| 20260902173323 | 25 | 236 | 9.7 | 12.9 | 0.00 | 0.00 | 0.00 | 29 | 1024.0 |
| 20260902172822 | 25 | 295 | 8.0 | 12.9 | 0.00 | 0.00 | 0.00 | 30 | 1024.0 |
| 20260902172323 | 25 | 292 | 6.4 | 11.3 | 0.00 | 0.00 | 0.00 | 31 | 1024.0 |
| 20260902171822 | 25 | 243 | 4.8 | 11.3 | 0.00 | 0.00 | 0.00 | 30 | 1024.0 |
| 20260902171322 | 25 | 159 | 3.2 | 8.0 | 0.00 | 0.00 | 0.00 | 30 | 1024.0 |
| 20260902170822 | 25 | 253 | 6.4 | 9.7 | 0.00 | 0.00 | 0.00 | 30 | 1024.0 |
| 20260902170323 | 25 | 256 | 8.0 | 11.3 | 0.00 | 0.00 | 0.00 | 31 | 1024.0 |